Allen, Indiana
Current Conditions -  °F | °C
As of 4:35 PM on Friday 31 Oct 2014 (Local Time) from KGWB Reporting Station
Light Rain Light Rain  
Wind Chill: 26°   Ceiling: 900
Heat Index: 36°   Visibility: 3mi
Dew Point: 32°   Wind: 16mph
Humidity: 87%   Direction: 360°N
Pressure: 29.96"   Gusts: 29mph
Location:  41.4608°N, 85.2531°W
Report Text: KGWB 312035Z AUTO 36014G25KT 3SM -RA BKN009 BKN017 OVC029 02/00 A2996 RMK AO2 P0001
Loading
Personal Weather Stations






























Interactive Weather Map
Tropical Storm Tracking
New forecast layout! Learn more

10-Day Weather Forecast

Advertisements
Track Severe Weather on mobile